createdAt,value
2018-04-18T00:00:44.829Z,96837
2018-04-18T00:03:15.760Z,96836
2018-04-18T00:05:46.605Z,96838
2018-04-18T00:08:17.806Z,96840
2018-04-18T00:10:48.591Z,96838
2018-04-18T00:13:19.359Z,96839
2018-04-18T00:15:51.601Z,96840
2018-04-18T00:21:39.179Z,96842
2018-04-18T00:24:09.956Z,96848
2018-04-18T00:26:40.882Z,96849
2018-04-18T00:29:11.725Z,96851
2018-04-18T00:31:42.684Z,96854
2018-04-18T00:34:13.417Z,96847
2018-04-18T00:36:44.201Z,96847
2018-04-18T00:39:15.006Z,96849
2018-04-18T00:41:45.824Z,96855
2018-04-18T00:44:16.788Z,96860
2018-04-18T00:46:47.690Z,96863
2018-04-18T00:49:18.616Z,96859
2018-04-18T00:51:49.490Z,96863
2018-04-18T00:54:20.460Z,96857
2018-04-18T00:56:51.188Z,96859
2018-04-18T00:59:22.104Z,96860
2018-04-18T01:01:52.959Z,96869
2018-04-18T01:04:23.919Z,96865
2018-04-18T01:06:54.852Z,96866
2018-04-18T01:09:25.778Z,96867
2018-04-18T01:11:56.713Z,96859
2018-04-18T01:14:27.694Z,96855
2018-04-18T01:16:58.473Z,96862
2018-04-18T01:22:23.523Z,96867
2018-04-18T01:24:54.336Z,96858
2018-04-18T01:27:25.178Z,96855
2018-04-18T01:29:56.015Z,96856
2018-04-18T01:32:26.847Z,96859
2018-04-18T01:34:58.149Z,96858
2018-04-18T01:37:28.974Z,96861
2018-04-18T01:39:59.885Z,96865
2018-04-18T01:42:31.829Z,96870
2018-04-18T01:45:03.802Z,96868
2018-04-18T01:47:35.146Z,96868
2018-04-18T01:50:06.026Z,96864
2018-04-18T01:52:36.991Z,96859
2018-04-18T01:55:09.605Z,96866
2018-04-18T01:57:40.415Z,96869
2018-04-18T02:00:11.257Z,96865
2018-04-18T02:02:42.116Z,96864
2018-04-18T02:05:12.939Z,96871
2018-04-18T02:07:43.765Z,96867
2018-04-18T02:10:14.629Z,96871
2018-04-18T02:12:45.392Z,96868
2018-04-18T02:15:16.320Z,96873
2018-04-18T02:17:47.262Z,96874
2018-04-18T02:20:18.121Z,96877
2018-04-18T02:22:49.025Z,96876
2018-04-18T02:25:19.889Z,96874
2018-04-18T02:27:50.905Z,96880
2018-04-18T02:30:21.765Z,96878
2018-04-18T02:32:52.624Z,96885
2018-04-18T02:35:24.087Z,96884
2018-04-18T02:37:55.065Z,96880
2018-04-18T02:40:26.013Z,96881
2018-04-18T02:42:56.910Z,96889
2018-04-18T02:45:27.678Z,96895
2018-04-18T02:47:58.517Z,96886
2018-04-18T02:50:29.298Z,96884
2018-04-18T02:53:00.586Z,96887
2018-04-18T02:55:31.528Z,96887
2018-04-18T02:58:02.520Z,96888
2018-04-18T03:00:33.306Z,96889
2018-04-18T03:03:04.175Z,96894
2018-04-18T03:05:34.982Z,96891
2018-04-18T03:08:05.817Z,96886
2018-04-18T03:10:36.627Z,96892
2018-04-18T03:13:07.358Z,96896
2018-04-18T03:15:38.219Z,96905
2018-04-18T03:18:09.049Z,96903
2018-04-18T03:20:40.006Z,96895
2018-04-18T03:23:10.790Z,96895
2018-04-18T03:25:41.654Z,96893
2018-04-18T03:28:12.503Z,96894
2018-04-18T03:30:43.682Z,96904
2018-04-18T03:33:14.547Z,96900
2018-04-18T03:35:45.382Z,96900
2018-04-18T03:38:16.243Z,96903
2018-04-18T03:40:47.241Z,96904
2018-04-18T03:43:18.013Z,96908
2018-04-18T03:45:48.719Z,96903
2018-04-18T03:48:19.449Z,96902
2018-04-18T03:50:50.109Z,96901
2018-04-18T03:53:20.900Z,96903
2018-04-18T03:55:51.596Z,96902
2018-04-18T03:58:22.302Z,96909
2018-04-18T04:00:53.194Z,96913
2018-04-18T04:03:23.856Z,96918
2018-04-18T04:05:54.476Z,96910
2018-04-18T04:08:25.323Z,96909
2018-04-18T04:10:56.310Z,96911
2018-04-18T04:13:27.161Z,96913
2018-04-18T04:16:15.562Z,96914
2018-04-18T04:18:57.723Z,96919
2018-04-18T04:22:38.660Z,96915
2018-04-18T04:25:09.513Z,96919
2018-04-18T04:27:40.277Z,96925
2018-04-18T04:30:10.976Z,96922
2018-04-18T04:32:41.839Z,96927
2018-04-18T04:35:12.609Z,96929
2018-04-18T04:37:43.476Z,96930
2018-04-18T04:40:14.205Z,96925
2018-04-18T04:42:45.309Z,96932
2018-04-18T04:45:16.075Z,96940
2018-04-18T04:47:46.822Z,96951
2018-04-18T04:50:17.559Z,96942
2018-04-18T04:52:48.335Z,96948
2018-04-18T04:55:19.092Z,96951
2018-04-18T04:57:49.943Z,96952
2018-04-18T05:00:20.761Z,96958
2018-04-18T05:02:51.673Z,96963
2018-04-18T05:05:22.348Z,96965
2018-04-18T05:07:53.211Z,96967
2018-04-18T05:10:24.123Z,96969
2018-04-18T05:12:54.781Z,96972
2018-04-18T05:15:25.552Z,96973
2018-04-18T05:17:56.368Z,96969
2018-04-18T05:20:27.217Z,96979
2018-04-18T05:22:57.886Z,96978
2018-04-18T05:38:27.428Z,96987
2018-04-18T05:40:59.047Z,96988
2018-04-18T05:43:29.973Z,96986
2018-04-18T05:46:00.702Z,96986
2018-04-18T05:48:31.648Z,96991
2018-04-18T05:51:02.686Z,96993
2018-04-18T05:53:34.490Z,96991
2018-04-18T05:56:06.013Z,96991
2018-04-18T05:58:36.913Z,96990
2018-04-18T06:01:08.043Z,96991
2018-04-18T06:03:39.009Z,96999
2018-04-18T06:06:09.971Z,97008
2018-04-18T06:08:41.171Z,97001
2018-04-18T06:11:12.006Z,97008
2018-04-18T06:13:43.012Z,97012
2018-04-18T06:16:14.589Z,97012
2018-04-18T06:18:45.606Z,97012
2018-04-18T06:21:16.546Z,97009
2018-04-18T06:23:48.770Z,97007
2018-04-18T06:26:19.564Z,97010
2018-04-18T06:28:50.215Z,97014
2018-04-18T06:31:21.499Z,97008
2018-04-18T06:33:52.868Z,97012
2018-04-18T06:36:24.422Z,97013
2018-04-18T06:38:55.625Z,97011
2018-04-18T06:41:26.967Z,97014
2018-04-18T06:43:58.029Z,97010
2018-04-18T06:46:28.990Z,97016
2018-04-18T06:48:59.769Z,97021
2018-04-18T06:51:30.734Z,97017
2018-04-18T06:54:02.969Z,97023
2018-04-18T06:56:34.204Z,97023
2018-04-18T06:59:05.434Z,97025
2018-04-18T07:01:36.762Z,97027
2018-04-18T07:04:08.037Z,97029
2018-04-18T07:06:40.180Z,97027
2018-04-18T07:09:11.634Z,97019
2018-04-18T07:11:42.481Z,97019
2018-04-18T07:14:13.390Z,97017
2018-04-18T07:16:44.197Z,97016
2018-04-18T07:19:14.985Z,97018
2018-04-18T07:21:45.806Z,97023
2018-04-18T07:24:16.611Z,97019
2018-04-18T07:26:47.435Z,97019
2018-04-18T07:29:18.247Z,97017
2018-04-18T07:31:52.916Z,97024
2018-04-18T07:34:23.888Z,97021
2018-04-18T07:36:54.876Z,97022
2018-04-18T07:39:26.159Z,97016
2018-04-18T07:41:56.943Z,97019
2018-04-18T07:44:28.016Z,97024
2018-04-18T07:46:59.045Z,97026
2018-04-18T07:49:34.317Z,97022
2018-04-18T07:52:08.427Z,97031
2018-04-18T07:54:39.949Z,97020
2018-04-18T07:57:11.162Z,97026
2018-04-18T07:59:42.144Z,97025
2018-04-18T08:02:13.334Z,97024
2018-04-18T08:04:45.339Z,97025
2018-04-18T08:07:16.748Z,97022
2018-04-18T08:09:48.030Z,97023
2018-04-18T08:12:19.318Z,97020
2018-04-18T08:14:50.454Z,97024
2018-04-18T08:17:21.607Z,97023
2018-04-18T08:19:52.805Z,97025
2018-04-18T08:22:23.992Z,97022
2018-04-18T08:24:55.468Z,97026
2018-04-18T08:27:26.900Z,97023
2018-04-18T08:29:58.383Z,97029
2018-04-18T08:32:29.714Z,97033
2018-04-18T08:35:02.463Z,97032
2018-04-18T08:37:33.979Z,97030
2018-04-18T08:40:05.345Z,97024
2018-04-18T08:42:36.614Z,97026
2018-04-18T08:45:07.745Z,97029
2018-04-18T08:47:38.926Z,97023
2018-04-18T08:50:09.887Z,97027
2018-04-18T08:52:41.722Z,97026
2018-04-18T08:55:15.138Z,97025
2018-04-18T08:57:46.808Z,97022
2018-04-18T09:00:18.361Z,97028
2018-04-18T09:02:49.892Z,97024
2018-04-18T09:05:21.262Z,97018
2018-04-18T09:07:52.477Z,97021
2018-04-18T09:10:23.629Z,97019
2018-04-18T09:12:54.658Z,97021
2018-04-18T09:15:26.860Z,97021
2018-04-18T09:24:16.357Z,97024
2018-04-18T09:26:47.586Z,97027
2018-04-18T09:29:19.691Z,97027
2018-04-18T09:31:51.771Z,97026
2018-04-18T09:34:24.216Z,97026
2018-04-18T09:36:56.505Z,97030
2018-04-18T09:39:29.276Z,97026
2018-04-18T09:42:00.678Z,97027
2018-04-18T09:44:33.429Z,97027
2018-04-18T09:47:06.340Z,97025
2018-04-18T09:49:37.744Z,97023
2018-04-18T09:52:10.287Z,97022
2018-04-18T09:54:42.993Z,97024
2018-04-18T09:57:15.377Z,97022
2018-04-18T09:59:47.259Z,97016
2018-04-18T10:02:19.843Z,97021
2018-04-18T10:04:52.692Z,97022
2018-04-18T10:07:24.546Z,97023
2018-04-18T10:09:56.539Z,97019
2018-04-18T10:12:31.216Z,97022
2018-04-18T10:15:15.004Z,97016
2018-04-18T10:17:53.947Z,97014
2018-04-18T10:20:30.005Z,97014
2018-04-18T10:23:04.780Z,97015
2018-04-18T10:25:36.062Z,97014
2018-04-18T10:28:10.807Z,97018
2018-04-18T10:30:42.006Z,97020
2018-04-18T10:33:15.457Z,97020
2018-04-18T10:35:50.446Z,97016
2018-04-18T10:38:22.486Z,97017
2018-04-18T10:40:58.241Z,97019
2018-04-18T10:43:39.686Z,97019
2018-04-18T10:46:17.515Z,97017
2018-04-18T10:49:08.365Z,97021
2018-04-18T10:51:39.245Z,97017
2018-04-18T10:54:11.050Z,97020
2018-04-18T10:56:42.216Z,97021
2018-04-18T10:59:14.208Z,97018
2018-04-18T11:01:45.075Z,97016
2018-04-18T11:04:16.152Z,97018
2018-04-18T11:06:47.556Z,97021
2018-04-18T11:09:18.887Z,97023
2018-04-18T11:11:49.637Z,97019
2018-04-18T11:14:20.595Z,97018
2018-04-18T11:16:51.653Z,97017
2018-04-18T11:19:22.657Z,97013
2018-04-18T11:21:53.555Z,97024
2018-04-18T11:24:24.814Z,97023
2018-04-18T11:26:55.810Z,97015
2018-04-18T11:29:27.232Z,97016
2018-04-18T11:31:57.840Z,97019
2018-04-18T11:34:28.450Z,97016
2018-04-18T11:36:59.163Z,97014
2018-04-18T11:39:29.797Z,97016
2018-04-18T11:42:00.605Z,97011
2018-04-18T11:44:31.695Z,97011
2018-04-18T11:47:02.714Z,97020
2018-04-18T11:49:36.537Z,97018
2018-04-18T11:52:07.536Z,97014
2018-04-18T11:54:38.328Z,97012
2018-04-18T11:57:09.086Z,97013
2018-04-18T11:59:40.232Z,97012
2018-04-18T12:02:11.797Z,97007
2018-04-18T12:04:43.228Z,97005
2018-04-18T12:07:14.417Z,97009
2018-04-18T12:09:45.777Z,97009
2018-04-18T12:12:16.842Z,97007
2018-04-18T12:14:47.889Z,97009
2018-04-18T12:17:18.704Z,97005
2018-04-18T12:19:49.356Z,97003
2018-04-18T12:22:20.254Z,97003
2018-04-18T12:24:51.172Z,97001
2018-04-18T12:27:21.915Z,97002
2018-04-18T12:29:52.643Z,97000
2018-04-18T12:32:23.403Z,97002
2018-04-18T12:34:53.997Z,96999
2018-04-18T12:37:24.729Z,97000
2018-04-18T12:39:55.492Z,96997
2018-04-18T12:42:26.794Z,96991
2018-04-18T12:44:57.352Z,96991
2018-04-18T12:47:27.974Z,96991
2018-04-18T12:49:58.823Z,96988
2018-04-18T12:52:29.736Z,96985
2018-04-18T12:55:00.743Z,96981
2018-04-18T12:57:31.622Z,96984
2018-04-18T13:00:02.523Z,96988
2018-04-18T13:02:38.521Z,96981
2018-04-18T13:05:09.579Z,96980
2018-04-18T13:07:40.576Z,96979
2018-04-18T13:10:12.550Z,96983
2018-04-18T13:12:44.048Z,96977
2018-04-18T13:15:16.693Z,96975
2018-04-18T13:17:47.976Z,96977
2018-04-18T13:20:19.448Z,96977
2018-04-18T13:22:50.843Z,96972
2018-04-18T13:25:22.033Z,96968
2018-04-18T13:27:55.809Z,96965
2018-04-18T13:30:26.996Z,96966
2018-04-18T13:36:10.221Z,96965
2018-04-18T13:38:41.096Z,96961
2018-04-18T13:41:13.310Z,96958
2018-04-18T13:43:46.081Z,96956
2018-04-18T13:46:22.801Z,96958
2018-04-18T13:48:55.871Z,96956
2018-04-18T13:51:27.999Z,96955
2018-04-18T13:53:59.126Z,96956
2018-04-18T13:56:30.157Z,96951
2018-04-18T13:59:01.437Z,96949
2018-04-18T14:01:32.687Z,96951
2018-04-18T14:04:03.799Z,96950
2018-04-18T14:06:34.930Z,96949
2018-04-18T14:09:06.722Z,96940
2018-04-18T14:11:39.165Z,96946
2018-04-18T14:16:48.138Z,96945
2018-04-18T14:19:19.135Z,96937
2018-04-18T14:21:50.706Z,96940
2018-04-18T14:24:21.979Z,96940
2018-04-18T14:26:52.854Z,96942
2018-04-18T14:29:24.336Z,96946
2018-04-18T14:31:55.741Z,96943
2018-04-18T14:34:31.404Z,96939
2018-04-18T14:37:07.327Z,96939
2018-04-18T14:39:38.903Z,96942
2018-04-18T14:42:09.919Z,96943
2018-04-18T14:44:43.450Z,96942
2018-04-18T14:47:16.200Z,96932
2018-04-18T14:49:48.609Z,96941
2018-04-18T14:52:19.590Z,96936
2018-04-18T14:55:02.312Z,96934
2018-04-18T14:57:35.276Z,96936
2018-04-18T15:00:06.264Z,96937
2018-04-18T15:02:37.230Z,96937
2018-04-18T15:05:08.146Z,96938
2018-04-18T15:07:39.136Z,96935
2018-04-18T15:10:10.243Z,96935
2018-04-18T15:12:41.808Z,96934
2018-04-18T15:15:13.020Z,96933
2018-04-18T15:17:45.861Z,96928
2018-04-18T15:20:17.242Z,96929
2018-04-18T15:22:48.433Z,96928
2018-04-18T15:25:20.282Z,96927
2018-04-18T15:34:14.747Z,96923
2018-04-18T15:37:13.004Z,96925
2018-04-18T15:40:06.074Z,96927
2018-04-18T15:42:37.009Z,96929
2018-04-18T15:45:09.943Z,96927
2018-04-18T15:47:41.003Z,96919
2018-04-18T15:50:12.507Z,96926
2018-04-18T15:52:44.314Z,96914
2018-04-18T16:01:08.399Z,96915
2018-04-18T16:03:39.386Z,96916
2018-04-18T16:06:10.029Z,96915
2018-04-18T16:08:40.779Z,96921
2018-04-18T16:11:11.808Z,96915
2018-04-18T16:13:42.749Z,96920
2018-04-18T16:16:13.536Z,96925
2018-04-18T16:18:44.208Z,96924
2018-04-18T16:21:15.311Z,96922
2018-04-18T16:23:47.341Z,96921
2018-04-18T16:26:18.248Z,96915
2018-04-18T16:28:57.811Z,96917
2018-04-18T16:31:29.226Z,96915
2018-04-18T16:37:27.014Z,96920
2018-04-18T16:39:59.223Z,96922
2018-04-18T16:42:30.705Z,96920
2018-04-18T16:45:15.190Z,96917
2018-04-18T16:47:46.303Z,96912
2018-04-18T16:50:17.356Z,96911
2018-04-18T16:52:48.236Z,96911
2018-04-18T16:55:19.241Z,96913
2018-04-18T16:57:55.968Z,96910
2018-04-18T17:00:26.592Z,96905
2018-04-18T17:02:57.210Z,96910
2018-04-18T17:05:27.890Z,96902
2018-04-18T17:07:58.689Z,96904
2018-04-18T17:10:29.521Z,96904
2018-04-18T17:13:00.513Z,96902
2018-04-18T17:15:31.377Z,96900
2018-04-18T17:18:02.266Z,96899
2018-04-18T17:20:33.715Z,96900
2018-04-18T17:23:05.493Z,96900
2018-04-18T17:25:36.415Z,96896
2018-04-18T17:28:07.187Z,96895
2018-04-18T17:30:38.038Z,96898
2018-04-18T17:33:09.489Z,96898
2018-04-18T17:35:40.290Z,96900
2018-04-18T17:38:11.237Z,96902
2018-04-18T17:40:42.048Z,96899
2018-04-18T17:43:12.831Z,96899
2018-04-18T17:45:43.819Z,96904
2018-04-18T17:48:14.473Z,96896
2018-04-18T17:50:45.194Z,96900
2018-04-18T17:53:15.947Z,96904
2018-04-18T17:55:46.743Z,96905
2018-04-18T17:58:17.341Z,96905
2018-04-18T18:00:49.274Z,96903
2018-04-18T18:03:20.099Z,96910
2018-04-18T18:05:50.917Z,96909
2018-04-18T18:08:21.740Z,96905
2018-04-18T18:10:52.967Z,96905
2018-04-18T18:13:25.032Z,96907
2018-04-18T18:15:55.817Z,96910
2018-04-18T18:18:27.720Z,96914
2018-04-18T18:20:58.492Z,96912
2018-04-18T18:23:29.902Z,96915
2018-04-18T18:26:00.663Z,96915
2018-04-18T18:28:31.425Z,96919
2018-04-18T18:31:02.013Z,96918
2018-04-18T18:33:32.956Z,96920
2018-04-18T18:36:04.631Z,96923
2018-04-18T18:38:35.357Z,96930
2018-04-18T18:41:06.398Z,96930
2018-04-18T18:43:37.112Z,96939
2018-04-18T18:46:08.078Z,96932
2018-04-18T18:48:38.743Z,96940
2018-04-18T18:51:09.577Z,96952
2018-04-18T18:53:40.547Z,96952
2018-04-18T18:56:11.624Z,96952
2018-04-18T18:58:42.339Z,96957
2018-04-18T19:01:13.309Z,96966
2018-04-18T19:03:44.236Z,96969
2018-04-18T19:06:15.196Z,96964
2018-04-18T19:08:46.050Z,96968
2018-04-18T19:11:17.010Z,96968
2018-04-18T19:13:48.304Z,96974
2018-04-18T19:16:19.329Z,96974
2018-04-18T19:18:50.156Z,96977
2018-04-18T19:21:21.225Z,96975
2018-04-18T19:23:52.064Z,96968
2018-04-18T19:26:22.731Z,96973
2018-04-18T19:28:54.368Z,96978
2018-04-18T19:31:25.163Z,96977
2018-04-18T19:33:56.096Z,96980
2018-04-18T19:36:27.283Z,96982
2018-04-18T19:38:58.226Z,96982
2018-04-18T19:41:29.555Z,96982
2018-04-18T19:44:00.381Z,96981
2018-04-18T19:46:31.260Z,96980
2018-04-18T19:49:01.931Z,96981
2018-04-18T19:51:32.671Z,96984
2018-04-18T19:54:03.335Z,96986
2018-04-18T19:56:35.318Z,96987
2018-04-18T19:59:06.355Z,96990
2018-04-18T20:01:37.349Z,96992
2018-04-18T20:04:09.329Z,96988
2018-04-18T20:06:41.025Z,96993
2018-04-18T20:09:12.286Z,96996
2018-04-18T20:11:43.140Z,96995
2018-04-18T20:14:14.353Z,96990
2018-04-18T20:16:45.294Z,96997
2018-04-18T20:19:16.469Z,97002
2018-04-18T20:21:47.430Z,96999
2018-04-18T20:24:18.188Z,96991
2018-04-18T20:26:48.993Z,97001
2018-04-18T20:29:19.901Z,97008
2018-04-18T20:31:50.756Z,97013
2018-04-18T20:34:21.704Z,97011
2018-04-18T20:36:52.586Z,97017
2018-04-18T20:39:23.425Z,97012
2018-04-18T20:41:56.249Z,97012
2018-04-18T20:44:27.039Z,97015
2018-04-18T20:46:57.852Z,97020
2018-04-18T20:49:28.898Z,97019
2018-04-18T20:51:59.806Z,97025
2018-04-18T20:54:32.297Z,97021
2018-04-18T20:57:03.187Z,97024
2018-04-18T20:59:33.974Z,97016
2018-04-18T21:02:05.840Z,97023
2018-04-18T21:04:36.575Z,97028
2018-04-18T21:07:07.287Z,97020
2018-04-18T21:09:38.216Z,97026
2018-04-18T21:12:09.099Z,97027
2018-04-18T21:14:41.214Z,97020
2018-04-18T21:17:12.255Z,97016
2018-04-18T21:19:43.169Z,97014
2018-04-18T21:22:14.032Z,97013
2018-04-18T21:24:45.033Z,97013
2018-04-18T21:27:15.909Z,97011
2018-04-18T21:29:48.350Z,97013
2018-04-18T21:32:19.497Z,97012
2018-04-18T21:34:50.369Z,97020
2018-04-18T21:37:21.282Z,97022
2018-04-18T21:39:52.102Z,97014
2018-04-18T21:42:23.052Z,97019
2018-04-18T21:44:54.101Z,97021
2018-04-18T21:47:25.012Z,97020
2018-04-18T21:49:56.466Z,97017
2018-04-18T21:52:27.249Z,97020
2018-04-18T21:54:58.139Z,97017
2018-04-18T21:57:29.129Z,97018
2018-04-18T22:00:00.431Z,97016
2018-04-18T22:02:31.359Z,97016
2018-04-18T22:05:02.509Z,97018
2018-04-18T22:07:34.263Z,97017
2018-04-18T22:10:05.417Z,97013
2018-04-18T22:12:36.282Z,97014
2018-04-18T22:15:07.303Z,97019
2018-04-18T22:17:38.154Z,97017
2018-04-18T22:20:09.074Z,97012
2018-04-18T22:22:40.166Z,97014
2018-04-18T22:25:11.374Z,97012
2018-04-18T22:27:42.625Z,97012
2018-04-18T22:30:13.776Z,97013
2018-04-18T22:32:44.957Z,97013
2018-04-18T22:35:15.944Z,97011
2018-04-18T22:37:46.974Z,97013
2018-04-18T22:40:17.850Z,97015
2018-04-18T22:42:48.753Z,97025
2018-04-18T22:45:19.608Z,97022
2018-04-18T22:47:50.510Z,97028
2018-04-18T22:50:21.656Z,97029
2018-04-18T22:52:52.630Z,97029
2018-04-18T22:55:23.728Z,97027
2018-04-18T22:57:54.548Z,97029
2018-04-18T23:00:44.422Z,97034
2018-04-18T23:03:15.353Z,97028
2018-04-18T23:05:46.202Z,97028
2018-04-18T23:08:17.112Z,97024
2018-04-18T23:10:47.922Z,97019
2018-04-18T23:13:18.744Z,97025
2018-04-18T23:15:49.549Z,97024
2018-04-18T23:18:20.486Z,97023
2018-04-18T23:20:51.360Z,97016
2018-04-18T23:23:22.215Z,97016
2018-04-18T23:25:53.123Z,97019
2018-04-18T23:28:24.074Z,97013
2018-04-18T23:30:54.958Z,97015
2018-04-18T23:33:25.790Z,97016
2018-04-18T23:35:56.810Z,97018
2018-04-18T23:38:27.603Z,97015
2018-04-18T23:40:58.510Z,97012
2018-04-18T23:53:03.975Z,97005
2018-04-18T23:58:59.910Z,97001
